createdAt,value
2022-11-06T00:04:15.801Z,88.98
2022-11-06T00:09:19.923Z,88.86
2022-11-06T00:14:23.481Z,88.98
2022-11-06T00:19:30.125Z,89.11
2022-11-06T00:24:34.269Z,89.37
2022-11-06T00:29:37.895Z,89.38
2022-11-06T00:34:41.352Z,89.36
2022-11-06T00:39:46.412Z,89.30
2022-11-06T00:44:49.912Z,89.39
2022-11-06T00:49:53.075Z,89.47
2022-11-06T00:54:56.589Z,89.57
2022-11-06T01:00:00.032Z,89.68
2022-11-06T01:05:06.429Z,89.79
2022-11-06T01:10:10.088Z,89.83
2022-11-06T01:15:13.499Z,89.20
2022-11-06T01:20:16.785Z,89.10
2022-11-06T01:25:20.042Z,89.10
2022-11-06T01:30:23.346Z,89.27
2022-11-06T01:35:27.273Z,89.62
2022-11-06T01:40:30.966Z,89.73
2022-11-06T01:45:38.499Z,89.79
2022-11-06T01:50:45.456Z,89.85
2022-11-06T01:55:52.819Z,89.82
2022-11-06T02:00:56.176Z,89.87
2022-11-06T02:06:01.283Z,89.93
2022-11-06T02:11:04.795Z,89.94
2022-11-06T02:16:29.442Z,89.91
2022-11-06T02:21:57.096Z,89.82
2022-11-06T02:27:32.712Z,88.98
2022-11-06T02:32:36.190Z,88.89
2022-11-06T02:37:39.369Z,89.61
2022-11-06T02:42:46.858Z,90.04
2022-11-06T02:47:51.111Z,90.00
2022-11-06T02:53:02.764Z,90.14
2022-11-06T02:58:18.694Z,90.24
2022-11-06T03:03:25.621Z,90.39
2022-11-06T03:08:55.257Z,89.82
2022-11-06T03:14:01.593Z,90.15
2022-11-06T03:19:38.221Z,90.48
2022-11-06T03:25:15.974Z,91.10
2022-11-06T03:30:20.897Z,91.39
2022-11-06T03:35:34.547Z,91.23
2022-11-06T03:40:42.296Z,91.03
2022-11-06T03:45:47.002Z,91.14
2022-11-06T03:50:58.066Z,91.10
2022-11-06T03:56:08.275Z,91.03
2022-11-06T04:01:13.620Z,91.02
2022-11-06T04:06:21.369Z,91.24
2022-11-06T04:11:45.604Z,91.38
2022-11-06T04:16:52.710Z,91.46
2022-11-06T04:22:17.436Z,91.49
2022-11-06T04:27:52.122Z,91.46
2022-11-06T04:33:15.723Z,91.53
2022-11-06T04:38:43.643Z,89.66
2022-11-06T04:44:02.626Z,91.09
2022-11-06T04:49:06.863Z,91.58
2022-11-06T04:54:11.178Z,91.50
2022-11-06T04:59:16.565Z,91.71
2022-11-06T05:04:20.004Z,91.87
2022-11-06T05:09:23.843Z,91.55
2022-11-06T05:14:27.067Z,91.15
2022-11-06T05:19:30.373Z,91.44
2022-11-06T05:24:41.375Z,91.55
2022-11-06T05:29:46.452Z,91.55
2022-11-06T05:34:49.607Z,91.73
2022-11-06T05:39:52.868Z,91.68
2022-11-06T05:44:55.973Z,91.67
2022-11-06T05:49:59.237Z,91.59
2022-11-06T05:55:02.354Z,91.59
2022-11-06T06:00:07.562Z,91.59
2022-11-06T06:05:16.053Z,91.73
2022-11-06T06:10:19.321Z,92.02
2022-11-06T06:15:22.605Z,92.02
2022-11-06T06:20:28.213Z,92.08
2022-11-06T06:25:31.900Z,92.19
2022-11-06T06:30:36.160Z,92.20
2022-11-06T06:35:39.443Z,92.26
2022-11-06T06:40:42.981Z,92.49
2022-11-06T06:45:46.281Z,92.50
2022-11-06T06:50:49.540Z,92.47
2022-11-06T06:55:53.126Z,92.60
2022-11-06T07:01:00.331Z,92.63
2022-11-06T07:06:04.055Z,92.76
2022-11-06T07:11:09.185Z,92.82
2022-11-06T07:16:12.466Z,92.81
2022-11-06T07:21:15.713Z,92.87
2022-11-06T07:26:18.890Z,92.93
2022-11-06T07:31:23.669Z,92.94
2022-11-06T07:36:29.233Z,92.95
2022-11-06T07:41:32.580Z,93.01
2022-11-06T07:46:42.157Z,93.04
2022-11-06T07:51:46.890Z,93.10
2022-11-06T07:56:56.496Z,93.19
2022-11-06T08:02:04.414Z,93.27
2022-11-06T08:07:14.972Z,93.30
2022-11-06T08:12:22.002Z,93.36
2022-11-06T08:17:31.457Z,93.37
2022-11-06T08:22:39.979Z,93.44
2022-11-06T08:27:48.914Z,93.50
2022-11-06T08:33:05.172Z,93.65
2022-11-06T08:38:11.361Z,93.85
2022-11-06T08:43:15.355Z,93.81
2022-11-06T08:48:19.495Z,93.77
2022-11-06T08:53:31.904Z,93.61
2022-11-06T08:58:52.958Z,93.57
2022-11-06T09:04:18.021Z,93.60
2022-11-06T09:09:22.634Z,93.81
2022-11-06T09:20:14.654Z,93.30
2022-11-06T09:25:26.879Z,93.45
2022-11-06T09:30:32.078Z,93.08
2022-11-06T09:35:42.433Z,93.35
2022-11-06T09:41:01.848Z,92.84
2022-11-06T09:46:23.161Z,91.62
2022-11-06T09:52:11.335Z,91.46
2022-11-06T09:57:46.027Z,90.82
2022-11-06T10:03:16.351Z,90.29
2022-11-06T10:08:39.037Z,90.54
2022-11-06T10:14:24.720Z,90.47
2022-11-06T10:19:48.112Z,90.17
2022-11-06T10:25:23.586Z,88.79
2022-11-06T10:30:34.107Z,88.06
2022-11-06T10:36:06.417Z,86.17
2022-11-06T10:41:30.223Z,86.96
2022-11-06T10:46:54.743Z,87.11
2022-11-06T10:52:31.892Z,86.69
2022-11-06T10:57:56.006Z,84.45
2022-11-06T11:03:04.955Z,84.19
2022-11-06T11:08:29.133Z,82.23
2022-11-06T11:13:57.492Z,81.10
2022-11-06T11:19:38.796Z,82.44
2022-11-06T11:25:18.867Z,80.07
2022-11-06T11:30:34.088Z,78.88
2022-11-06T11:35:49.639Z,75.85
2022-11-06T11:41:11.635Z,74.68
2022-11-06T11:46:21.209Z,79.05
2022-11-06T11:51:45.305Z,77.88
2022-11-06T11:57:07.160Z,77.04
2022-11-06T12:02:33.617Z,79.70
2022-11-06T12:07:49.900Z,75.97
2022-11-06T12:12:58.113Z,75.22
2022-11-06T12:18:18.877Z,73.05
2022-11-06T12:23:51.732Z,71.83
2022-11-06T12:29:06.774Z,72.95
2022-11-06T12:34:21.347Z,73.36
2022-11-06T12:39:36.308Z,71.48
2022-11-06T12:44:41.972Z,71.01
2022-11-06T12:50:07.904Z,72.60
2022-11-06T12:56:03.396Z,74.19
2022-11-06T13:01:16.592Z,72.20
2022-11-06T13:07:00.931Z,75.20
2022-11-06T13:12:48.465Z,73.55
2022-11-06T13:18:35.288Z,73.02
2022-11-06T13:24:00.177Z,76.58
2022-11-06T13:29:11.751Z,76.81
2022-11-06T13:34:35.188Z,76.75
2022-11-06T13:40:07.040Z,75.69
2022-11-06T13:45:15.515Z,73.67
2022-11-06T13:50:49.646Z,75.90
2022-11-06T13:56:31.946Z,76.14
2022-11-06T14:02:18.971Z,76.61
2022-11-06T14:07:31.292Z,76.89
2022-11-06T14:12:45.071Z,76.82
2022-11-06T14:18:00.843Z,76.70
2022-11-06T14:23:29.462Z,76.52
2022-11-06T14:28:35.436Z,76.82
2022-11-06T14:33:57.011Z,76.69
2022-11-06T14:39:04.265Z,76.10
2022-11-06T14:44:28.121Z,76.96
2022-11-06T14:49:37.924Z,76.71
2022-11-06T14:54:49.941Z,75.99
2022-11-06T14:59:57.552Z,75.94
2022-11-06T15:05:11.582Z,76.33
2022-11-06T15:10:45.152Z,76.84
2022-11-06T15:15:53.607Z,77.56
2022-11-06T15:21:01.031Z,78.23
2022-11-06T15:26:21.314Z,78.95
2022-11-06T15:31:25.516Z,79.91
2022-11-06T15:36:29.857Z,80.32
2022-11-06T15:41:33.416Z,80.55
2022-11-06T15:46:37.128Z,81.45
2022-11-06T15:51:47.250Z,81.79
2022-11-06T15:56:50.808Z,81.12
2022-11-06T16:01:54.383Z,80.77
2022-11-06T16:07:03.326Z,81.16
2022-11-06T16:12:16.473Z,81.69
2022-11-06T16:17:26.949Z,81.83
2022-11-06T16:22:35.462Z,82.71
2022-11-06T16:27:44.645Z,82.66
2022-11-06T16:32:48.184Z,82.54
2022-11-06T16:37:51.459Z,82.28
2022-11-06T16:43:07.305Z,82.69
2022-11-06T16:48:29.095Z,83.41
2022-11-06T16:54:02.050Z,83.27
2022-11-06T16:59:20.870Z,82.90
2022-11-06T17:04:48.919Z,83.24
2022-11-06T17:10:42.742Z,82.79
2022-11-06T17:16:14.173Z,82.89
2022-11-06T17:21:24.312Z,83.23
2022-11-06T17:26:47.328Z,83.06
2022-11-06T17:31:53.658Z,83.25
2022-11-06T17:37:04.455Z,83.13
2022-11-06T17:42:21.541Z,83.17
2022-11-06T17:47:36.863Z,83.48
2022-11-06T17:52:45.928Z,83.78
2022-11-06T17:57:54.700Z,83.89
2022-11-06T18:03:02.461Z,84.10
2022-11-06T18:08:15.584Z,84.52
2022-11-06T18:13:35.280Z,85.06
2022-11-06T18:18:53.088Z,85.19
2022-11-06T18:23:59.220Z,85.83
2022-11-06T18:29:13.464Z,86.47
2022-11-06T18:34:32.147Z,86.64
2022-11-06T18:39:54.078Z,87.04
2022-11-06T18:45:00.147Z,87.38
2022-11-06T18:50:12.510Z,87.47
2022-11-06T18:55:29.868Z,87.93
2022-11-06T19:00:37.997Z,87.90
2022-11-06T19:05:52.869Z,88.21
2022-11-06T19:11:12.110Z,88.78
2022-11-06T19:16:22.529Z,88.96
2022-11-06T19:21:38.842Z,88.96
2022-11-06T19:26:48.089Z,89.31
2022-11-06T19:32:04.570Z,89.13
2022-11-06T19:37:11.582Z,89.09
2022-11-06T19:42:15.828Z,89.19
2022-11-06T19:47:27.946Z,89.86
2022-11-06T19:52:45.580Z,90.31
2022-11-06T19:58:23.925Z,90.73
2022-11-06T20:03:37.229Z,90.79
2022-11-06T20:08:57.758Z,91.01
2022-11-06T20:14:02.944Z,91.15
2022-11-06T20:19:34.565Z,91.28
2022-11-06T20:24:49.336Z,91.12
2022-11-06T20:30:02.840Z,91.24
2022-11-06T20:35:15.756Z,91.42
2022-11-06T20:40:32.073Z,91.25
2022-11-06T20:45:43.658Z,91.68
2022-11-06T20:51:09.297Z,91.57
2022-11-06T20:56:25.714Z,91.44
2022-11-06T21:01:34.291Z,91.28
2022-11-06T21:06:45.492Z,91.62
2022-11-06T21:11:51.116Z,91.99
2022-11-06T21:16:57.902Z,92.40
2022-11-06T21:22:09.392Z,92.58
2022-11-06T21:27:24.504Z,92.68
2022-11-06T21:32:28.210Z,92.45
2022-11-06T21:37:34.405Z,91.17
2022-11-06T21:42:41.213Z,91.41
2022-11-06T21:47:46.399Z,92.07
2022-11-06T21:53:10.788Z,92.30
2022-11-06T21:58:25.562Z,92.50
2022-11-06T22:03:32.943Z,92.33
2022-11-06T22:08:57.040Z,92.61
2022-11-06T22:14:09.801Z,92.89
2022-11-06T22:19:18.062Z,92.93
2022-11-06T22:24:38.105Z,93.04
2022-11-06T22:29:47.983Z,93.11
2022-11-06T22:34:52.761Z,93.27
2022-11-06T22:39:56.834Z,93.44
2022-11-06T22:45:07.670Z,93.50
2022-11-06T22:50:14.885Z,93.65
2022-11-06T22:55:18.455Z,93.68
2022-11-06T23:00:22.792Z,93.68
2022-11-06T23:05:26.215Z,93.64
2022-11-06T23:10:29.526Z,93.27
2022-11-06T23:15:32.742Z,93.49
2022-11-06T23:20:36.248Z,93.22
2022-11-06T23:25:39.595Z,91.44
2022-11-06T23:30:46.244Z,92.32
2022-11-06T23:35:50.007Z,92.53
2022-11-06T23:41:18.152Z,92.45
2022-11-06T23:46:32.082Z,92.13
2022-11-06T23:51:43.325Z,91.90
2022-11-06T23:56:49.118Z,92.37
